createdAt,value
2023-06-07T00:01:28.391Z,34.91
2023-06-07T00:03:41.573Z,34.90
2023-06-07T00:05:54.713Z,34.91
2023-06-07T00:08:07.808Z,34.91
2023-06-07T00:10:20.710Z,34.92
2023-06-07T00:12:34.178Z,34.93
2023-06-07T00:14:49.507Z,34.93
2023-06-07T00:17:02.486Z,34.92
2023-06-07T00:19:15.560Z,34.92
2023-06-07T00:21:29.555Z,34.91
2023-06-07T00:23:42.354Z,34.93
2023-06-07T00:25:55.581Z,34.95
2023-06-07T00:28:08.684Z,34.94
2023-06-07T00:30:23.163Z,34.93
2023-06-07T00:32:35.765Z,34.92
2023-06-07T00:34:50.532Z,34.90
2023-06-07T00:37:02.993Z,34.90
2023-06-07T00:39:15.614Z,34.89
2023-06-07T00:41:28.889Z,34.87
2023-06-07T00:43:41.896Z,34.88
2023-06-07T00:45:54.344Z,34.87
2023-06-07T00:48:07.995Z,34.85
2023-06-07T00:50:21.764Z,34.84
2023-06-07T00:52:34.662Z,34.81
2023-06-07T00:54:47.882Z,34.79
2023-06-07T00:57:00.748Z,34.75
2023-06-07T00:59:14.406Z,34.72
2023-06-07T01:01:29.694Z,34.70
2023-06-07T01:03:43.632Z,34.66
2023-06-07T01:05:57.146Z,34.62
2023-06-07T01:08:09.999Z,34.59
2023-06-07T01:10:23.557Z,34.55
2023-06-07T01:12:38.920Z,34.54
2023-06-07T01:14:52.791Z,34.52
2023-06-07T01:17:06.302Z,34.50
2023-06-07T01:19:25.349Z,34.49
2023-06-07T01:21:41.268Z,34.46
2023-06-07T01:23:54.191Z,34.41
2023-06-07T01:26:07.873Z,34.35
2023-06-07T01:28:21.416Z,34.32
2023-06-07T01:30:35.755Z,34.28
2023-06-07T01:32:50.470Z,34.25
2023-06-07T01:35:04.023Z,34.19
2023-06-07T01:37:17.156Z,34.13
2023-06-07T01:39:32.806Z,34.07
2023-06-07T01:41:46.611Z,34.02
2023-06-07T01:44:03.449Z,33.95
2023-06-07T01:46:17.043Z,33.90
2023-06-07T01:48:30.287Z,33.85
2023-06-07T01:50:42.894Z,33.81
2023-06-07T01:52:55.835Z,33.75
2023-06-07T01:55:09.926Z,33.70
2023-06-07T01:57:31.079Z,33.66
2023-06-07T01:59:58.191Z,33.60
2023-06-07T02:02:17.754Z,33.56
2023-06-07T02:04:35.286Z,33.51
2023-06-07T02:06:53.002Z,33.47
2023-06-07T02:09:11.349Z,33.40
2023-06-07T02:11:28.098Z,33.35
2023-06-07T02:13:46.372Z,33.30
2023-06-07T02:15:59.281Z,33.26
2023-06-07T02:18:13.905Z,33.22
2023-06-07T02:20:29.385Z,33.17
2023-06-07T02:22:41.993Z,33.11
2023-06-07T02:24:54.771Z,33.05
2023-06-07T02:27:08.615Z,33.00
2023-06-07T02:29:21.314Z,32.94
2023-06-07T02:31:34.714Z,32.89
2023-06-07T02:33:48.002Z,32.86
2023-06-07T02:36:01.237Z,32.82
2023-06-07T02:38:13.987Z,32.79
2023-06-07T02:40:26.880Z,32.77
2023-06-07T02:42:40.011Z,32.74
2023-06-07T02:44:53.324Z,32.68
2023-06-07T02:47:05.920Z,32.62
2023-06-07T02:49:18.841Z,32.58
2023-06-07T02:51:31.985Z,32.54
2023-06-07T02:53:44.628Z,32.48
2023-06-07T02:55:57.670Z,32.42
2023-06-07T02:58:10.590Z,32.35
2023-06-07T03:00:26.539Z,32.30
2023-06-07T03:02:44.287Z,32.21
2023-06-07T03:04:58.106Z,32.13
2023-06-07T03:07:13.200Z,32.04
2023-06-07T03:09:27.550Z,31.98
2023-06-07T03:11:40.273Z,31.91
2023-06-07T03:13:53.680Z,31.85
2023-06-07T03:16:10.684Z,31.80
2023-06-07T03:18:33.470Z,31.73
2023-06-07T03:20:47.884Z,31.65
2023-06-07T03:23:01.805Z,31.55
2023-06-07T03:25:15.163Z,31.46
2023-06-07T03:27:29.833Z,31.37
2023-06-07T03:29:45.862Z,31.27
2023-06-07T03:31:59.492Z,31.19
2023-06-07T03:34:12.556Z,31.11
2023-06-07T03:36:28.182Z,31.00
2023-06-07T03:38:41.201Z,30.90
2023-06-07T03:40:53.644Z,30.81
2023-06-07T03:43:06.497Z,30.70
2023-06-07T03:45:19.298Z,30.61
2023-06-07T03:47:32.662Z,30.52
2023-06-07T03:49:45.352Z,30.41
2023-06-07T03:51:58.289Z,30.34
2023-06-07T03:54:12.241Z,30.25
2023-06-07T03:56:25.141Z,30.16
2023-06-07T03:58:40.257Z,30.06
2023-06-07T04:00:57.718Z,29.97
2023-06-07T04:03:10.620Z,29.88
2023-06-07T04:05:26.780Z,29.78
2023-06-07T04:07:40.632Z,29.70
2023-06-07T04:09:54.492Z,29.63
2023-06-07T04:12:07.718Z,29.55
2023-06-07T04:14:20.240Z,29.47
2023-06-07T04:16:33.566Z,29.39
2023-06-07T04:18:47.267Z,29.31
2023-06-07T04:21:00.092Z,29.22
2023-06-07T04:23:12.683Z,29.14
2023-06-07T04:25:28.217Z,29.05
2023-06-07T04:27:42.425Z,28.97
2023-06-07T04:29:55.904Z,28.88
2023-06-07T04:32:09.155Z,28.81
2023-06-07T04:34:24.038Z,28.73
2023-06-07T04:36:41.564Z,28.64
2023-06-07T04:39:01.009Z,28.54
2023-06-07T04:41:16.270Z,28.45
2023-06-07T04:43:38.666Z,28.36
2023-06-07T04:45:58.076Z,28.27
2023-06-07T04:48:14.875Z,28.19
2023-06-07T04:50:28.341Z,28.13
2023-06-07T04:52:42.217Z,28.08
2023-06-07T04:54:56.123Z,28.02
2023-06-07T04:57:10.858Z,27.96
2023-06-07T04:59:25.196Z,27.92
2023-06-07T05:01:38.066Z,27.87
2023-06-07T05:03:53.053Z,27.82
2023-06-07T05:06:06.444Z,27.76
2023-06-07T05:08:19.273Z,27.71
2023-06-07T05:10:32.242Z,27.66
2023-06-07T05:12:46.774Z,27.60
2023-06-07T05:15:00.340Z,27.53
2023-06-07T05:17:21.422Z,27.47
2023-06-07T05:19:36.760Z,27.42
2023-06-07T05:21:49.461Z,27.38
2023-06-07T05:24:02.401Z,27.35
2023-06-07T05:26:15.144Z,27.30
2023-06-07T05:28:28.066Z,27.26
2023-06-07T05:30:41.598Z,27.22
2023-06-07T05:32:56.178Z,27.18
2023-06-07T05:35:10.707Z,27.12
2023-06-07T05:37:25.503Z,27.07
2023-06-07T05:39:40.177Z,27.02
2023-06-07T05:41:54.220Z,26.96
2023-06-07T05:44:07.193Z,26.90
2023-06-07T05:46:20.872Z,26.81
2023-06-07T05:48:34.209Z,26.75
2023-06-07T05:50:47.517Z,26.68
2023-06-07T05:53:01.234Z,26.61
2023-06-07T05:55:14.753Z,26.52
2023-06-07T05:57:27.373Z,26.43
2023-06-07T05:59:40.083Z,26.35
2023-06-07T06:01:54.584Z,26.27
2023-06-07T06:04:07.566Z,26.18
2023-06-07T06:06:23.637Z,26.10
2023-06-07T06:08:36.508Z,26.02
2023-06-07T06:10:50.252Z,25.92
2023-06-07T06:13:02.954Z,25.84
2023-06-07T06:15:16.940Z,25.77
2023-06-07T06:17:31.835Z,25.68
2023-06-07T06:19:44.563Z,25.59
2023-06-07T06:21:57.193Z,25.51
2023-06-07T06:24:10.547Z,25.42
2023-06-07T06:26:24.112Z,25.33
2023-06-07T06:28:37.131Z,25.26
2023-06-07T06:30:49.820Z,25.17
2023-06-07T06:33:04.543Z,25.09
2023-06-07T06:35:17.158Z,25.02
2023-06-07T06:37:29.959Z,24.95
2023-06-07T06:39:42.572Z,24.90
2023-06-07T06:41:55.601Z,24.84
2023-06-07T06:44:16.711Z,24.79
2023-06-07T06:46:29.398Z,24.73
2023-06-07T06:48:42.367Z,24.68
2023-06-07T06:50:54.805Z,24.63
2023-06-07T06:53:07.406Z,24.56
2023-06-07T06:55:20.057Z,24.50
2023-06-07T06:57:33.666Z,24.44
2023-06-07T06:59:48.363Z,24.37
2023-06-07T07:02:02.974Z,24.29
2023-06-07T07:04:15.663Z,24.23
2023-06-07T07:06:29.270Z,24.16
2023-06-07T07:08:41.759Z,24.11
2023-06-07T07:10:54.400Z,24.06
2023-06-07T07:13:07.608Z,24.02
2023-06-07T07:15:20.049Z,23.97
2023-06-07T07:17:33.494Z,23.92
2023-06-07T07:19:46.167Z,23.88
2023-06-07T07:21:58.700Z,23.84
2023-06-07T07:24:13.629Z,23.79
2023-06-07T07:26:26.628Z,23.72
2023-06-07T07:28:39.758Z,23.63
2023-06-07T07:30:52.976Z,23.55
2023-06-07T07:33:06.087Z,23.47
2023-06-07T07:35:20.975Z,23.41
2023-06-07T07:37:34.275Z,23.34
2023-06-07T07:39:49.678Z,23.26
2023-06-07T07:42:02.148Z,23.17
2023-06-07T07:44:15.078Z,23.09
2023-06-07T07:46:27.769Z,22.99
2023-06-07T07:48:40.502Z,22.92
2023-06-07T07:50:55.732Z,22.85
2023-06-07T07:53:08.515Z,22.80
2023-06-07T07:55:23.375Z,22.74
2023-06-07T07:57:35.962Z,22.68
2023-06-07T07:59:48.465Z,22.61
2023-06-07T08:02:01.260Z,22.55
2023-06-07T08:04:13.781Z,22.50
2023-06-07T08:06:29.734Z,22.44
2023-06-07T08:08:42.488Z,22.37
2023-06-07T08:10:55.342Z,22.30
2023-06-07T08:13:07.844Z,22.26
2023-06-07T08:15:21.087Z,22.24
2023-06-07T08:17:34.074Z,22.22
2023-06-07T08:19:46.650Z,22.20
2023-06-07T08:22:00.087Z,22.16
2023-06-07T08:24:13.776Z,22.11
2023-06-07T08:26:26.693Z,22.06
2023-06-07T08:28:39.644Z,21.99
2023-06-07T08:30:52.309Z,21.92
2023-06-07T08:33:05.092Z,21.85
2023-06-07T08:35:17.913Z,21.78
2023-06-07T08:37:30.521Z,21.71
2023-06-07T08:39:43.492Z,21.66
2023-06-07T08:41:56.355Z,21.60
2023-06-07T08:44:12.828Z,21.53
2023-06-07T08:46:27.511Z,21.46
2023-06-07T08:48:41.804Z,21.39
2023-06-07T08:50:57.588Z,21.31
2023-06-07T08:53:16.962Z,21.23
2023-06-07T08:55:29.868Z,21.15
2023-06-07T08:57:42.675Z,21.07
2023-06-07T08:59:55.466Z,20.99
2023-06-07T09:02:10.213Z,20.95
2023-06-07T09:04:22.802Z,20.90
2023-06-07T09:06:36.629Z,20.86
2023-06-07T09:08:49.860Z,20.83
2023-06-07T09:11:02.611Z,20.79
2023-06-07T09:13:16.367Z,20.75
2023-06-07T09:15:29.760Z,20.69
2023-06-07T09:18:01.314Z,20.64
2023-06-07T09:20:25.675Z,20.58
2023-06-07T09:22:39.768Z,20.53
2023-06-07T09:24:52.617Z,20.48
2023-06-07T09:27:06.805Z,20.45
2023-06-07T09:29:21.613Z,20.40
2023-06-07T09:31:38.627Z,20.35
2023-06-07T09:33:51.481Z,20.31
2023-06-07T09:36:17.354Z,20.28
2023-06-07T09:38:35.377Z,20.24
2023-06-07T09:41:02.960Z,20.21
2023-06-07T09:43:16.487Z,20.18
2023-06-07T09:45:30.375Z,20.14
2023-06-07T09:47:43.817Z,20.09
2023-06-07T09:50:09.263Z,20.04
2023-06-07T09:52:22.027Z,20.00
2023-06-07T09:54:44.281Z,19.96
2023-06-07T09:56:59.049Z,19.91
2023-06-07T09:59:16.604Z,19.86
2023-06-07T10:02:09.355Z,19.80
2023-06-07T10:04:34.236Z,19.71
2023-06-07T10:06:50.024Z,19.66
2023-06-07T10:09:07.820Z,19.61
2023-06-07T10:11:33.116Z,19.56
2023-06-07T10:13:57.107Z,19.51
2023-06-07T10:16:33.135Z,19.47
2023-06-07T10:18:47.373Z,19.45
2023-06-07T10:21:22.911Z,19.42
2023-06-07T10:23:54.988Z,19.39
2023-06-07T10:26:24.070Z,19.36
2023-06-07T10:28:54.974Z,19.34
2023-06-07T10:31:22.491Z,19.31
2023-06-07T10:33:36.215Z,19.29
2023-06-07T10:36:10.153Z,19.27
2023-06-07T10:38:23.396Z,19.25
2023-06-07T10:40:47.392Z,19.22
2023-06-07T10:43:11.411Z,19.19
2023-06-07T10:45:37.038Z,19.17
2023-06-07T10:47:51.582Z,19.15
2023-06-07T10:50:04.860Z,19.11
2023-06-07T10:52:38.929Z,19.08
2023-06-07T10:54:55.465Z,19.06
2023-06-07T10:57:13.181Z,19.04
2023-06-07T10:59:37.297Z,19.03
2023-06-07T11:01:51.410Z,19.03
2023-06-07T11:04:08.965Z,19.03
2023-06-07T11:06:22.007Z,19.02
2023-06-07T11:08:39.086Z,19.00
2023-06-07T11:11:00.764Z,18.98
2023-06-07T11:13:53.628Z,18.94
2023-06-07T11:16:42.961Z,18.91
2023-06-07T11:19:11.357Z,18.86
2023-06-07T11:21:30.414Z,18.80
2023-06-07T11:24:18.117Z,18.77
2023-06-07T11:26:43.811Z,18.71
2023-06-07T11:29:07.858Z,18.64
2023-06-07T11:31:24.167Z,18.58
2023-06-07T11:33:47.316Z,18.54
2023-06-07T11:36:06.186Z,18.48
2023-06-07T11:38:22.707Z,18.44
2023-06-07T11:40:56.183Z,18.41
2023-06-07T11:43:14.222Z,18.39
2023-06-07T11:45:27.538Z,18.37
2023-06-07T11:47:40.429Z,18.35
2023-06-07T11:50:02.650Z,18.33
2023-06-07T11:52:27.787Z,18.32
2023-06-07T11:54:53.130Z,18.30
2023-06-07T11:57:08.403Z,18.29
2023-06-07T11:59:24.034Z,18.27
2023-06-07T12:02:00.481Z,18.26
2023-06-07T12:04:13.821Z,18.23
2023-06-07T12:06:28.868Z,18.22
2023-06-07T12:09:01.936Z,18.22
2023-06-07T12:11:15.317Z,18.20
2023-06-07T12:13:33.572Z,18.18
2023-06-07T12:15:59.911Z,18.18
2023-06-07T12:18:27.640Z,18.17
2023-06-07T12:20:43.793Z,18.16
2023-06-07T12:22:56.908Z,18.16
2023-06-07T12:25:24.992Z,18.15
2023-06-07T12:27:51.543Z,18.13
2023-06-07T12:30:15.399Z,18.10
2023-06-07T12:32:31.869Z,18.08
2023-06-07T12:35:08.558Z,18.05
2023-06-07T12:37:24.577Z,18.02
2023-06-07T12:39:47.329Z,18.01
2023-06-07T12:42:06.786Z,18.00
2023-06-07T12:44:19.690Z,17.98
2023-06-07T12:46:53.075Z,17.94
2023-06-07T12:49:06.342Z,17.92
2023-06-07T12:51:18.911Z,17.91
2023-06-07T12:53:52.083Z,17.90
2023-06-07T12:56:16.377Z,17.91
2023-06-07T12:58:49.289Z,17.93
2023-06-07T13:01:02.501Z,17.94
2023-06-07T13:03:15.641Z,17.93
2023-06-07T13:05:28.529Z,17.94
2023-06-07T13:07:44.516Z,17.94
2023-06-07T13:10:08.635Z,17.95
2023-06-07T13:12:22.641Z,17.94
2023-06-07T13:14:55.364Z,17.93
2023-06-07T13:17:11.918Z,17.94
2023-06-07T13:19:24.894Z,17.96
2023-06-07T13:21:38.918Z,17.95
2023-06-07T13:23:55.302Z,17.93
2023-06-07T13:26:11.304Z,17.91
2023-06-07T13:28:34.120Z,17.89
2023-06-07T13:30:50.378Z,17.87
2023-06-07T13:33:06.456Z,17.81
2023-06-07T13:35:33.658Z,17.77
2023-06-07T13:37:48.972Z,17.72
2023-06-07T13:40:01.971Z,17.66
2023-06-07T13:42:26.406Z,17.64
2023-06-07T13:44:43.256Z,17.61
2023-06-07T13:47:06.151Z,17.58
2023-06-07T13:49:23.828Z,17.57
2023-06-07T13:51:57.355Z,17.58
2023-06-07T13:54:29.967Z,17.60
2023-06-07T13:57:03.353Z,17.61
2023-06-07T13:59:19.567Z,17.60
2023-06-07T14:01:35.925Z,17.59
2023-06-07T14:04:02.701Z,17.59
2023-06-07T14:06:29.163Z,17.61
2023-06-07T14:09:02.267Z,17.62
2023-06-07T14:11:16.585Z,17.62
2023-06-07T14:13:39.669Z,17.60
2023-06-07T14:16:12.500Z,17.59
2023-06-07T14:18:29.282Z,17.55
2023-06-07T14:20:45.324Z,17.55
2023-06-07T14:22:58.305Z,17.55
2023-06-07T14:25:16.824Z,17.53
2023-06-07T14:27:48.683Z,17.54
2023-06-07T14:30:01.553Z,17.55
2023-06-07T14:32:16.363Z,17.54
2023-06-07T14:34:28.898Z,17.55
2023-06-07T14:36:52.914Z,17.52
2023-06-07T14:39:05.904Z,17.50
2023-06-07T14:41:21.513Z,17.49
2023-06-07T14:43:55.845Z,17.48
2023-06-07T14:46:12.016Z,17.51
2023-06-07T14:48:28.337Z,17.50
2023-06-07T14:50:44.712Z,17.44
2023-06-07T14:52:58.674Z,17.40
2023-06-07T14:55:12.703Z,17.37
2023-06-07T14:57:26.088Z,17.36
2023-06-07T14:59:39.766Z,17.36
2023-06-07T15:01:54.020Z,17.36
2023-06-07T15:04:10.744Z,17.36
2023-06-07T15:06:40.106Z,17.35
2023-06-07T15:09:04.348Z,17.28
2023-06-07T15:11:29.169Z,17.26
2023-06-07T15:14:02.598Z,17.24
2023-06-07T15:16:15.726Z,17.23
2023-06-07T15:18:29.195Z,17.23
2023-06-07T15:21:02.472Z,17.19
2023-06-07T15:23:16.056Z,17.17
2023-06-07T15:25:49.410Z,17.18
2023-06-07T15:28:12.689Z,17.18
2023-06-07T15:30:46.132Z,17.19
2023-06-07T15:33:12.903Z,17.18
2023-06-07T15:35:29.399Z,17.18
2023-06-07T15:37:52.109Z,17.19
2023-06-07T15:40:16.997Z,17.19
2023-06-07T15:42:50.252Z,17.17
2023-06-07T15:45:23.740Z,17.20
2023-06-07T15:47:59.744Z,17.25
2023-06-07T15:50:33.512Z,17.33
2023-06-07T15:52:56.590Z,17.39
2023-06-07T15:55:14.779Z,17.44
2023-06-07T15:57:31.083Z,17.51
2023-06-07T16:00:04.608Z,17.60
2023-06-07T16:02:38.229Z,17.67
2023-06-07T16:05:00.958Z,17.76
2023-06-07T16:07:13.836Z,17.81
2023-06-07T16:09:29.183Z,17.89
2023-06-07T16:12:03.600Z,17.98
2023-06-07T16:14:36.550Z,18.05
2023-06-07T16:16:53.085Z,18.06
2023-06-07T16:19:15.879Z,18.07
2023-06-07T16:21:28.712Z,18.11
2023-06-07T16:23:41.592Z,18.16
2023-06-07T16:25:56.343Z,18.24
2023-06-07T16:28:09.314Z,18.29
2023-06-07T16:30:22.674Z,18.33
2023-06-07T16:32:56.910Z,18.41
2023-06-07T16:35:20.536Z,18.48
2023-06-07T16:37:42.791Z,18.56
2023-06-07T16:39:55.666Z,18.68
2023-06-07T16:42:08.717Z,18.82
2023-06-07T16:44:23.176Z,18.96
2023-06-07T16:46:39.174Z,19.09
2023-06-07T16:49:12.233Z,19.19
2023-06-07T16:51:24.942Z,19.26
2023-06-07T16:53:47.818Z,19.36
2023-06-07T16:56:01.112Z,19.38
2023-06-07T16:58:14.686Z,19.50
2023-06-07T17:00:28.749Z,19.59
2023-06-07T17:02:47.256Z,19.67
2023-06-07T17:05:22.572Z,19.74
2023-06-07T17:07:58.844Z,19.85
2023-06-07T17:10:13.030Z,19.98
2023-06-07T17:12:25.739Z,20.16
2023-06-07T17:14:58.931Z,20.25
2023-06-07T17:17:11.830Z,20.30
2023-06-07T17:19:24.604Z,20.34
2023-06-07T17:21:57.440Z,20.43
2023-06-07T17:24:30.341Z,20.46
2023-06-07T17:26:43.220Z,20.57
2023-06-07T17:28:59.429Z,20.76
2023-06-07T17:31:12.155Z,20.90
2023-06-07T17:33:41.682Z,20.99
2023-06-07T17:36:14.983Z,21.04
2023-06-07T17:38:27.942Z,21.16
2023-06-07T17:40:40.768Z,21.24
2023-06-07T17:42:53.632Z,21.33
2023-06-07T17:45:10.649Z,21.42
2023-06-07T17:47:25.523Z,21.57
2023-06-07T17:49:38.646Z,21.62
2023-06-07T17:51:58.419Z,21.66
2023-06-07T17:54:24.365Z,21.66
2023-06-07T17:56:57.120Z,21.66
2023-06-07T17:59:10.023Z,21.62
2023-06-07T18:01:25.002Z,21.64
2023-06-07T18:03:39.284Z,21.70
2023-06-07T18:06:04.077Z,21.72
2023-06-07T18:08:28.354Z,21.74
2023-06-07T18:10:41.163Z,21.80
2023-06-07T18:12:53.809Z,21.87
2023-06-07T18:15:13.023Z,21.91
2023-06-07T18:17:29.861Z,22.00
2023-06-07T18:19:43.762Z,22.17
2023-06-07T18:21:59.092Z,22.37
2023-06-07T18:24:12.655Z,22.58
2023-06-07T18:26:34.386Z,22.75
2023-06-07T18:28:46.972Z,22.78
2023-06-07T18:31:03.377Z,22.80
2023-06-07T18:33:38.114Z,22.84
2023-06-07T18:36:01.570Z,22.86
2023-06-07T18:38:17.623Z,22.90
2023-06-07T18:40:31.033Z,22.90
2023-06-07T18:42:43.724Z,22.90
2023-06-07T18:44:56.765Z,22.93
2023-06-07T18:47:19.731Z,22.97
2023-06-07T18:49:43.184Z,23.01
2023-06-07T18:51:59.458Z,23.04
2023-06-07T18:54:11.948Z,23.05
2023-06-07T18:56:29.021Z,23.06
2023-06-07T18:58:41.821Z,23.07
2023-06-07T19:00:59.602Z,23.08
2023-06-07T19:03:21.846Z,23.11
2023-06-07T19:05:34.787Z,23.22
2023-06-07T19:08:08.396Z,23.34
2023-06-07T19:10:41.255Z,23.36
2023-06-07T19:12:54.431Z,23.38
2023-06-07T19:15:27.714Z,23.49
2023-06-07T19:17:40.817Z,23.58
2023-06-07T19:19:54.015Z,23.71
2023-06-07T19:22:09.344Z,23.88
2023-06-07T19:24:22.254Z,24.07
2023-06-07T19:26:35.169Z,24.24
2023-06-07T19:29:00.022Z,24.36
2023-06-07T19:31:13.036Z,24.46
2023-06-07T19:33:28.515Z,24.59
2023-06-07T19:35:43.419Z,24.73
2023-06-07T19:38:16.538Z,24.86
2023-06-07T19:40:49.461Z,24.84
2023-06-07T19:43:04.002Z,24.80
2023-06-07T19:45:20.518Z,24.87
2023-06-07T19:47:33.562Z,24.95
2023-06-07T19:49:56.829Z,24.99
2023-06-07T19:52:16.340Z,25.02
2023-06-07T19:54:40.722Z,25.08
2023-06-07T19:56:56.775Z,25.20
2023-06-07T19:59:10.325Z,25.36
2023-06-07T20:01:23.270Z,25.54
2023-06-07T20:03:43.448Z,25.76
2023-06-07T20:06:16.246Z,25.87
2023-06-07T20:08:39.562Z,25.86
2023-06-07T20:10:55.832Z,25.83
2023-06-07T20:13:15.258Z,25.81
2023-06-07T20:15:34.200Z,25.85
2023-06-07T20:17:50.250Z,25.88
2023-06-07T20:20:07.095Z,25.95
2023-06-07T20:22:20.680Z,26.02
2023-06-07T20:24:36.466Z,26.13
2023-06-07T20:26:49.619Z,26.21
2023-06-07T20:29:03.724Z,26.15
2023-06-07T20:31:16.399Z,26.02
2023-06-07T20:33:39.861Z,25.92
2023-06-07T20:36:03.541Z,25.88
2023-06-07T20:38:29.402Z,25.84
2023-06-07T20:40:45.683Z,25.81
2023-06-07T20:42:59.049Z,25.77
2023-06-07T20:45:16.937Z,25.74
2023-06-07T20:47:45.013Z,25.73
2023-06-07T20:50:18.300Z,25.71
2023-06-07T20:52:51.297Z,25.74
2023-06-07T20:55:14.565Z,25.80
2023-06-07T20:57:28.033Z,25.90
2023-06-07T20:59:47.105Z,25.97
2023-06-07T21:02:02.940Z,26.01
2023-06-07T21:04:24.873Z,26.02
2023-06-07T21:06:40.832Z,26.03
2023-06-07T21:08:57.055Z,26.05
2023-06-07T21:11:10.991Z,26.09
2023-06-07T21:13:23.646Z,26.12
2023-06-07T21:15:36.558Z,26.19
2023-06-07T21:17:49.382Z,26.26
2023-06-07T21:20:02.558Z,26.32
2023-06-07T21:22:15.340Z,26.35
2023-06-07T21:24:28.044Z,26.35
2023-06-07T21:27:01.005Z,26.34
2023-06-07T21:29:17.155Z,26.33
2023-06-07T21:31:49.940Z,26.36
2023-06-07T21:34:06.642Z,26.39
2023-06-07T21:36:40.824Z,26.35
2023-06-07T21:39:14.206Z,26.28
2023-06-07T21:41:38.205Z,26.18
2023-06-07T21:44:00.654Z,26.08
2023-06-07T21:46:13.676Z,26.11
2023-06-07T21:48:38.156Z,26.14
2023-06-07T21:50:54.465Z,26.18
2023-06-07T21:53:11.082Z,26.19
2023-06-07T21:55:44.048Z,26.22
2023-06-07T21:58:00.324Z,26.32
2023-06-07T22:00:18.673Z,26.46
2023-06-07T22:02:51.426Z,26.57
2023-06-07T22:05:04.212Z,26.61
2023-06-07T22:07:17.109Z,26.63
2023-06-07T22:09:30.141Z,26.66
2023-06-07T22:12:05.374Z,26.72
2023-06-07T22:14:18.905Z,26.72
2023-06-07T22:16:36.243Z,26.70
2023-06-07T22:19:01.854Z,26.70
2023-06-07T22:21:15.279Z,26.73
2023-06-07T22:23:48.477Z,26.77
2023-06-07T22:26:21.617Z,26.87
2023-06-07T22:28:34.796Z,26.92
2023-06-07T22:30:57.751Z,26.97
2023-06-07T22:33:11.720Z,27.02
2023-06-07T22:35:25.689Z,27.04
2023-06-07T22:37:51.223Z,27.05
2023-06-07T22:40:17.230Z,27.05
2023-06-07T22:42:40.995Z,27.08
2023-06-07T22:45:05.189Z,27.12
2023-06-07T22:47:20.242Z,27.15
2023-06-07T22:49:45.075Z,27.18
2023-06-07T22:52:08.438Z,27.19
2023-06-07T22:54:21.254Z,27.20
2023-06-07T22:56:54.006Z,27.22
2023-06-07T22:59:10.336Z,27.25
2023-06-07T23:01:33.836Z,27.28
2023-06-07T23:03:51.144Z,27.34
2023-06-07T23:06:09.418Z,27.41
2023-06-07T23:08:23.232Z,27.46
2023-06-07T23:10:45.470Z,27.53
2023-06-07T23:13:17.452Z,27.57
2023-06-07T23:15:34.487Z,27.57
2023-06-07T23:17:51.529Z,27.57
2023-06-07T23:20:13.146Z,27.51
2023-06-07T23:22:36.224Z,27.48
2023-06-07T23:25:09.547Z,27.50
2023-06-07T23:27:22.538Z,27.53
2023-06-07T23:29:38.497Z,27.57
2023-06-07T23:32:12.505Z,27.57
2023-06-07T23:34:26.164Z,27.57
2023-06-07T23:36:39.905Z,27.57
2023-06-07T23:38:53.182Z,27.59
2023-06-07T23:41:06.361Z,27.61
2023-06-07T23:43:39.507Z,27.63
2023-06-07T23:46:02.045Z,27.66
2023-06-07T23:48:35.038Z,27.70
2023-06-07T23:50:52.163Z,27.72
2023-06-07T23:53:06.093Z,27.70
2023-06-07T23:55:30.758Z,27.65
2023-06-07T23:57:43.799Z,27.67
